Time;durP1;ratioP1;P1;durP2;ratioP2;P2;SDS_P1;SDS_P2;PMS_P1;PMS_P2;Temp;Humidity;BMP_temperature;BMP_pressure;BME280_temperature;BME280_humidity;BME280_pressure;Samples;Min_cycle;Max_cycle;Signal;HPM_P1;HPM_P2
2021/06/07 07:12:27;;;;;;;17.73;11.18;;;20.50;77.20;;;;;;2502719;52;22115;-68
2021/06/07 07:14:53;;;;;;;17.27;11.02;;;20.60;78.50;;;;;;2412555;54;20942;-67
2021/06/07 07:17:20;;;;;;;20.15;11.82;;;20.60;78.50;;;;;;2291903;54;21411;-67
2021/06/07 07:19:47;;;;;;;19.70;11.10;;;20.60;78.50;;;;;;2294247;54;20929;-69
2021/06/07 07:22:16;;;;;;;18.80;11.98;;;20.60;78.20;;;;;;2281484;54;20996;-68
2021/06/07 07:24:44;;;;;;;17.42;10.82;;;20.70;78.00;;;;;;2307398;54;21000;-67
2021/06/07 07:27:12;;;;;;;20.25;11.27;;;20.70;78.00;;;;;;2557958;53;20996;-68
2021/06/07 07:29:39;;;;;;;19.45;12.10;;;20.70;77.90;;;;;;2323776;54;21501;-70
2021/06/07 07:32:06;;;;;;;23.30;12.40;;;20.70;77.80;;;;;;2325558;54;20945;-67
2021/06/07 07:34:36;;;;;;;21.42;11.82;;;20.70;77.80;;;;;;2330476;54;21849;-67
2021/06/07 07:37:03;;;;;;;19.08;12.02;;;20.70;77.70;;;;;;2317877;54;21445;-67
2021/06/07 07:39:32;;;;;;;21.77;12.65;;;20.80;77.80;;;;;;2323314;54;21037;-67
2021/06/07 07:41:58;;;;;;;26.75;14.07;;;20.80;77.50;;;;;;2317345;54;21052;-69
2021/06/07 07:44:26;;;;;;;21.85;13.07;;;20.80;77.60;;;;;;2324072;54;20997;-67
2021/06/07 07:46:52;;;;;;;21.75;12.88;;;20.80;77.50;;;;;;2312896;54;20953;-68
2021/06/07 07:49:20;;;;;;;20.40;12.30;;;20.80;77.40;;;;;;2328660;54;21005;-68
2021/06/07 07:51:46;;;;;;;23.40;13.82;;;20.80;77.40;;;;;;2321507;54;21770;-67
2021/06/07 07:54:13;;;;;;;21.00;13.52;;;20.80;77.40;;;;;;2527004;54;20960;-67
2021/06/07 07:56:40;;;;;;;21.52;13.02;;;20.80;77.50;;;;;;2256311;55;21217;-67
2021/06/07 07:59:08;;;;;;;23.73;13.30;;;20.80;77.60;;;;;;2460619;53;20944;-73
2021/06/07 08:01:34;;;;;;;20.40;12.52;;;20.80;77.60;;;;;;2310777;54;20973;-73
2021/06/07 08:04:01;;;;;;;22.20;12.98;;;20.80;77.80;;;;;;2303411;54;21037;-67
2021/06/07 08:06:30;;;;;;;18.45;11.65;;;20.80;77.90;;;;;;2312796;53;20989;-67
2021/06/07 08:08:58;;;;;;;18.37;12.07;;;20.80;77.90;;;;;;2307897;54;21505;-68
2021/06/07 08:11:25;;;;;;;21.08;12.90;;;20.90;78.00;;;;;;2295526;54;20993;-72
2021/06/07 08:13:52;;;;;;;18.87;12.07;;;20.90;78.30;;;;;;2300241;54;20977;-70
2021/06/07 08:16:18;;;;;;;19.87;12.45;;;20.90;78.30;;;;;;2430732;54;20961;-67
2021/06/07 08:18:45;;;;;;;20.60;14.25;;;21.00;78.30;;;;;;2391634;54;21001;-71
2021/06/07 08:21:14;;;;;;;23.10;14.50;;;21.00;78.20;;;;;;2310168;54;20969;-72
2021/06/07 08:23:41;;;;;;;20.77;13.75;;;21.00;77.70;;;;;;2307397;54;21084;-73
2021/06/07 08:26:07;;;;;;;19.35;13.52;;;21.00;78.00;;;;;;2313058;54;21521;-67
2021/06/07 08:28:33;;;;;;;19.70;12.30;;;21.00;78.00;;;;;;2315275;53;20985;-69
2021/06/07 08:31:00;;;;;;;19.15;13.27;;;21.10;78.20;;;;;;2542023;54;20966;-68
2021/06/07 08:33:28;;;;;;;18.83;12.68;;;21.10;78.10;;;;;;2347278;54;21528;-68
2021/06/07 08:35:54;;;;;;;16.27;11.12;;;21.10;78.10;;;;;;2307766;54;21835;-68
2021/06/07 08:38:22;;;;;;;18.00;11.43;;;21.10;78.00;;;;;;2307877;54;21767;-71
2021/06/07 08:40:51;;;;;;;15.73;10.52;;;21.20;78.00;;;;;;2280702;54;20981;-67
2021/06/07 08:43:17;;;;;;;14.87;9.77;;;21.20;78.10;;;;;;2311301;54;21473;-69
2021/06/07 08:45:43;;;;;;;13.90;10.13;;;21.30;78.40;;;;;;2307560;54;20980;-68
2021/06/07 08:48:10;;;;;;;14.05;9.57;;;21.30;78.40;;;;;;2310526;54;21047;-69
2021/06/07 08:50:36;;;;;;;15.05;9.70;;;21.30;78.40;;;;;;2307706;54;21919;-71
2021/06/07 08:53:03;;;;;;;14.85;9.75;;;21.40;78.40;;;;;;2541362;54;20962;-71
2021/06/07 08:55:31;;;;;;;14.80;10.27;;;21.40;78.30;;;;;;2310119;54;20964;-71
2021/06/07 08:57:59;;;;;;;12.77;9.02;;;21.40;78.10;;;;;;2311828;54;21072;-67
2021/06/07 09:00:38;;;;;;;13.82;10.27;;;21.50;78.10;;;;;;2307195;54;21021;-72
2021/06/07 09:03:13;;;;;;;14.32;9.82;;;21.50;77.70;;;;;;2312384;53;20968;-69
2021/06/07 09:05:40;;;;;;;13.45;9.80;;;21.60;77.40;;;;;;2309566;54;20969;-68
2021/06/07 09:08:17;;;;;;;14.40;9.85;;;21.50;77.70;;;;;;2309880;54;21107;-71
2021/06/07 09:10:47;;;;;;;13.38;9.77;;;21.60;77.30;;;;;;2308258;54;21363;-69
2021/06/07 09:13:15;;;;;;;15.43;10.95;;;21.60;77.60;;;;;;2309722;54;21080;-73
2021/06/07 09:16:01;;;;;;;15.98;10.82;;;21.60;77.90;;;;;;2306864;54;21862;-70
2021/06/07 09:18:37;;;;;;;14.93;10.63;;;21.70;77.70;;;;;;2314268;54;21793;-69
2021/06/07 09:21:12;;;;;;;16.67;11.07;;;21.60;77.10;;;;;;2308814;54;20970;-68
2021/06/07 09:23:49;;;;;;;15.23;10.77;;;21.70;77.00;;;;;;2308731;54;21056;-68
2021/06/07 09:26:34;;;;;;;14.80;10.95;;;21.70;77.00;;;;;;2309172;54;20985;-70
2021/06/07 09:29:04;;;;;;;17.10;11.63;;;21.70;76.30;;;;;;2522508;54;21076;-69
2021/06/07 09:31:35;;;;;;;17.12;11.25;;;21.70;77.00;;;;;;2537842;54;21021;-70
2021/06/07 09:34:04;;;;;;;16.33;10.35;;;21.70;76.90;;;;;;2307949;54;21459;-69
2021/06/07 09:36:42;;;;;;;18.42;11.10;;;21.70;77.10;;;;;;2312563;54;21109;-71
2021/06/07 09:39:23;;;;;;;17.12;11.63;;;21.70;76.70;;;;;;2308138;54;21021;-72
2021/06/07 09:42:24;;;;;;;18.15;11.82;;;21.70;76.20;;;;;;2293547;54;21023;-68
2021/06/07 09:44:52;;;;;;;17.65;10.85;;;21.70;75.80;;;;;;2308316;54;21168;-70
2021/06/07 09:47:39;;;;;;;17.83;12.07;;;21.70;76.80;;;;;;2300527;54;21028;-67
2021/06/07 09:50:11;;;;;;;15.25;11.12;;;21.60;75.70;;;;;;2315924;53;20965;-67
2021/06/07 09:52:44;;;;;;;17.80;11.32;;;21.60;76.40;;;;;;2309171;54;21029;-68
2021/06/07 09:55:18;;;;;;;15.90;11.10;;;21.60;76.20;;;;;;2335023;54;21434;-68
2021/06/07 09:57:51;;;;;;;17.70;12.10;;;21.60;76.70;;;;;;2309941;54;20969;-67
2021/06/07 10:00:48;;;;;;;17.55;11.82;;;21.60;76.60;;;;;;2308603;54;20953;-68
2021/06/07 10:03:55;;;;;;;14.15;10.65;;;21.60;76.10;;;;;;2304139;53;21584;-68
2021/06/07 10:06:35;;;;;;;15.98;10.43;;;21.60;75.90;;;;;;2308160;54;21955;-68
2021/06/07 10:09:07;;;;;;;14.82;10.10;;;21.60;76.40;;;;;;2338889;54;21009;-67
2021/06/07 10:11:40;;;;;;;14.48;10.38;;;21.60;76.80;;;;;;2311894;53;20957;-72
2021/06/07 10:14:19;;;;;;;16.08;10.52;;;21.60;76.90;;;;;;2310675;54;20957;-67
2021/06/07 10:17:00;;;;;;;13.57;9.93;;;21.60;76.80;;;;;;2309794;53;21065;-68
2021/06/07 10:20:46;;;;;;;13.68;10.32;;;21.60;76.70;;;;;;2314751;54;21631;-70
2021/06/07 10:23:12;;;;;;;13.73;9.90;;;21.60;77.60;;;;;;2540873;54;20969;-68
2021/06/07 10:25:39;;;;;;;15.30;11.25;;;21.60;77.80;;;;;;2310761;54;21588;-68
2021/06/07 10:28:05;;;;;;;15.95;10.98;;;21.70;77.90;;;;;;2307954;54;21005;-68
2021/06/07 10:30:37;;;;;;;17.10;9.32;;;21.70;78.10;;;;;;2306864;54;21001;-68
2021/06/07 10:33:21;;;;;;;;;;;21.70;77.70;;;;;;2314775;54;21869;-68
2021/06/07 10:35:48;;;;;;;10.07;6.95;;;21.80;77.10;;;;;;2307179;54;20095;-69
2021/06/07 10:38:14;;;;;;;11.75;8.45;;;21.80;78.10;;;;;;2305179;54;20985;-70
2021/06/07 10:40:41;;;;;;;12.35;9.15;;;21.90;78.20;;;;;;2538238;54;20988;-70
2021/06/07 10:43:09;;;;;;;11.25;8.45;;;21.90;78.20;;;;;;2307836;54;20989;-69
2021/06/07 10:45:38;;;;;;;12.02;8.32;;;21.90;78.30;;;;;;2380102;54;20950;-69
2021/06/07 10:48:06;;;;;;;11.35;8.55;;;22.00;78.30;;;;;;2307516;54;21062;-68
2021/06/07 10:50:35;;;;;;;13.88;9.48;;;22.00;78.10;;;;;;2311563;54;21013;-67
2021/06/07 10:53:05;;;;;;;14.10;10.43;;;22.00;78.00;;;;;;2313776;53;21001;-72
2021/06/07 10:55:37;;;;;;;14.43;10.07;;;22.10;77.90;;;;;;2307846;54;21101;-70
2021/06/07 10:58:12;;;;;;;15.82;10.98;;;22.10;77.70;;;;;;2306657;54;21541;-70
2021/06/07 11:00:46;;;;;;;13.50;9.65;;;22.20;77.30;;;;;;2290897;54;20961;-68
2021/06/07 11:03:20;;;;;;;12.35;8.70;;;22.20;77.10;;;;;;2472985;54;22484;-69
2021/06/07 11:05:47;;;;;;;11.30;8.40;;;22.20;77.20;;;;;;2312197;54;21053;-69
2021/06/07 11:08:33;;;;;;;12.00;7.85;;;22.20;77.70;;;;;;2308156;54;21085;-69
2021/06/07 11:11:13;;;;;;;11.43;7.40;;;22.30;76.80;;;;;;2309300;54;21557;-72
2021/06/07 11:13:47;;;;;;;9.68;7.05;;;22.30;77.00;;;;;;2309496;54;20972;-70
2021/06/07 11:16:32;;;;;;;9.52;7.00;;;22.30;76.70;;;;;;2316321;54;21041;-71
2021/06/07 11:19:17;;;;;;;11.35;7.10;;;22.40;76.10;;;;;;2290594;55;21173;-68
2021/06/07 11:22:02;;;;;;;11.63;7.05;;;22.30;75.70;;;;;;2294255;54;21091;-72
2021/06/07 11:24:32;;;;;;;11.45;6.30;;;22.40;75.80;;;;;;2312248;54;20961;-68
2021/06/07 11:27:32;;;;;;;8.02;5.95;;;22.40;76.50;;;;;;2303669;53;21041;-73
2021/06/07 11:30:12;;;;;;;8.15;5.72;;;22.40;75.60;;;;;;2301796;54;21014;-69
2021/06/07 11:32:40;;;;;;;7.60;5.35;;;22.40;75.70;;;;;;2309920;54;20939;-68
2021/06/07 11:35:07;;;;;;;7.53;5.47;;;22.30;76.20;;;;;;2310724;54;21840;-67
2021/06/07 11:37:35;;;;;;;9.68;6.32;;;22.30;76.30;;;;;;2309078;54;21609;-74
2021/06/07 11:40:03;;;;;;;9.55;6.28;;;22.30;76.20;;;;;;2308719;54;21003;-69
2021/06/07 11:42:30;;;;;;;7.97;5.85;;;22.30;76.20;;;;;;2311628;54;21008;-68
2021/06/07 11:45:07;;;;;;;7.97;5.57;;;22.30;76.30;;;;;;2436333;54;21002;-70
2021/06/07 11:47:51;;;;;;;7.55;5.25;;;22.30;76.30;;;;;;2309248;54;21879;-72
2021/06/07 11:50:28;;;;;;;6.65;4.95;;;22.30;75.20;;;;;;2301834;54;21041;-68
2021/06/07 11:52:55;;;;;;;7.32;4.93;;;22.20;75.60;;;;;;2310066;54;21005;-73
2021/06/07 11:55:32;;;;;;;8.43;5.85;;;22.20;76.30;;;;;;2300976;54;21122;-69
2021/06/07 11:58:06;;;;;;;6.85;5.03;;;22.20;76.50;;;;;;2396713;54;21012;-68
2021/06/07 12:00:40;;;;;;;6.80;4.85;;;22.20;76.40;;;;;;2284000;54;21047;-72
2021/06/07 12:03:09;;;;;;;6.82;5.32;;;22.20;77.30;;;;;;2294311;54;21028;-70
2021/06/07 12:05:36;;;;;;;6.85;4.95;;;22.30;77.90;;;;;;2315314;54;20956;-68
2021/06/07 12:08:14;;;;;;;6.55;5.00;;;22.30;78.20;;;;;;2309996;54;21041;-71
2021/06/07 12:10:48;;;;;;;6.97;4.85;;;22.30;77.90;;;;;;2308447;54;20996;-68
2021/06/07 12:13:33;;;;;;;6.12;4.70;;;22.40;78.30;;;;;;2453634;54;21060;-69
2021/06/07 12:16:02;;;;;;;5.53;4.05;;;22.50;77.40;;;;;;2307139;54;21101;-68
2021/06/07 12:18:36;;;;;;;6.53;4.65;;;22.60;78.60;;;;;;2312523;54;21013;-75
2021/06/07 12:21:27;;;;;;;5.78;4.68;;;22.60;77.90;;;;;;2307035;54;21033;-69
2021/06/07 12:24:11;;;;;;;6.62;4.72;;;22.70;77.60;;;;;;2300190;54;21001;-69
2021/06/07 12:29:56;;;;;;;5.32;3.55;;;22.80;77.20;;;;;;2528832;54;21095;-70
2021/06/07 12:32:24;;;;;;;5.60;3.90;;;22.80;75.20;;;;;;2310899;54;20973;-69
2021/06/07 12:35:16;;;;;;;4.62;3.60;;;22.80;76.60;;;;;;2308128;54;20969;-68
2021/06/07 12:37:53;;;;;;;6.40;4.37;;;22.80;75.30;;;;;;2302047;54;21379;-69
2021/06/07 12:40:40;;;;;;;5.47;4.00;;;22.80;75.60;;;;;;2309332;54;20957;-67
2021/06/07 12:43:17;;;;;;;5.50;3.90;;;22.80;74.90;;;;;;2309144;54;21116;-70
2021/06/07 12:46:27;;;;;;;5.10;4.00;;;22.80;75.30;;;;;;2288756;54;21656;-69
2021/06/07 12:48:53;;;;;;;5.07;3.83;;;22.80;74.90;;;;;;2290374;54;21037;-69
2021/06/07 12:51:21;;;;;;;6.20;4.70;;;22.70;75.90;;;;;;2309900;54;21092;-70
2021/06/07 12:53:52;;;;;;;6.35;4.55;;;22.70;75.80;;;;;;2300090;54;20977;-72
2021/06/07 12:56:27;;;;;;;5.13;3.97;;;22.70;75.50;;;;;;2315052;54;21076;-69
2021/06/07 12:58:57;;;;;;;5.70;4.03;;;22.70;75.30;;;;;;2293902;54;20949;-68
2021/06/07 13:01:40;;;;;;;6.18;4.57;;;22.70;76.00;;;;;;2317369;53;20970;-68
2021/06/07 13:04:39;;;;;;;7.18;4.62;;;22.60;75.50;;;;;;2310187;54;20993;-72
2021/06/07 13:07:20;;;;;;;5.95;4.28;;;22.70;76.00;;;;;;2309210;54;21041;-69
2021/06/07 13:09:49;;;;;;;6.03;3.93;;;22.70;76.50;;;;;;2313832;54;20934;-71
2021/06/07 13:12:22;;;;;;;5.57;4.20;;;22.70;77.90;;;;;;2310352;54;21069;-69
2021/06/07 13:14:52;;;;;;;7.20;4.78;;;22.80;77.70;;;;;;2541494;54;21029;-70
2021/06/07 13:17:21;;;;;;;6.18;4.43;;;22.90;78.00;;;;;;2516539;54;21022;-69
2021/06/07 13:19:51;;;;;;;5.68;4.32;;;22.90;78.40;;;;;;2310015;54;21065;-68
2021/06/07 13:22:18;;;;;;;5.50;4.15;;;23.00;78.30;;;;;;2312602;54;20977;-71
2021/06/07 13:24:47;;;;;;;4.97;4.00;;;23.10;78.40;;;;;;2541763;54;20985;-68
2021/06/07 13:27:22;;;;;;;5.75;3.92;;;23.10;78.20;;;;;;2283401;54;20963;-72
2021/06/07 13:29:49;;;;;;;5.65;3.87;;;23.20;77.20;;;;;;2309238;54;20937;-68
2021/06/07 13:32:37;;;;;;;5.30;4.15;;;23.30;77.60;;;;;;2302890;54;21569;-69
2021/06/07 13:35:08;;;;;;;5.72;4.10;;;23.40;76.30;;;;;;2312666;54;21017;-69
2021/06/07 13:37:44;;;;;;;5.28;3.80;;;23.40;76.70;;;;;;2466645;54;21057;-69
2021/06/07 13:41:03;;;;;;;5.12;3.85;;;23.40;76.10;;;;;;2313244;54;20964;-69
2021/06/07 13:43:29;;;;;;;5.57;4.12;;;23.50;75.50;;;;;;2543117;54;20969;-70
2021/06/07 13:45:56;;;;;;;5.15;3.95;;;23.50;76.90;;;;;;2311231;53;20985;-72
2021/06/07 13:48:22;;;;;;;5.68;4.40;;;23.50;76.70;;;;;;2308827;54;20953;-69
2021/06/07 13:50:55;;;;;;;5.35;3.87;;;23.50;76.40;;;;;;2312436;54;21028;-69
2021/06/07 13:53:23;;;;;;;5.28;3.92;;;23.50;75.50;;;;;;2309938;54;21258;-74
2021/06/07 13:55:58;;;;;;;5.30;3.85;;;23.50;76.00;;;;;;2312276;54;20969;-70
2021/06/07 13:58:24;;;;;;;5.95;4.57;;;23.50;76.00;;;;;;2382661;54;20980;-73
2021/06/07 14:00:54;;;;;;;5.50;4.07;;;23.50;75.70;;;;;;2310935;54;21033;-71
2021/06/07 14:03:22;;;;;;;5.97;4.53;;;23.50;75.20;;;;;;2313263;54;21012;-73
2021/06/07 14:05:51;;;;;;;4.93;3.92;;;23.50;75.50;;;;;;2309516;54;20977;-72
2021/06/07 14:08:25;;;;;;;6.15;4.25;;;23.40;75.40;;;;;;2313430;54;21013;-73
2021/06/07 14:10:52;;;;;;;4.70;3.60;;;23.40;75.50;;;;;;2311602;54;20984;-69
2021/06/07 14:13:22;;;;;;;5.05;3.60;;;23.40;75.80;;;;;;2314406;54;21004;-76
2021/06/07 14:15:48;;;;;;;5.20;3.50;;;23.40;75.90;;;;;;2310468;54;21072;-69
2021/06/07 14:18:14;;;;;;;5.18;3.70;;;23.40;76.10;;;;;;2541481;53;20949;-69
2021/06/07 14:20:45;;;;;;;4.43;3.37;;;23.40;76.20;;;;;;2310051;54;20961;-67
2021/06/07 14:26:04;;;;;;;4.78;3.80;;;23.50;75.90;;;;;;2534498;54;20957;-68
2021/06/07 14:28:30;;;;;;;5.07;3.90;;;23.50;76.20;;;;;;2308317;54;20985;-69
2021/06/07 14:30:57;;;;;;;4.60;3.35;;;23.50;76.40;;;;;;2313790;54;21072;-69
2021/06/07 14:33:24;;;;;;;5.10;4.07;;;23.50;76.40;;;;;;2299831;53;21371;-72
2021/06/07 14:35:50;;;;;;;4.90;3.75;;;23.60;76.50;;;;;;2312794;54;21029;-70
2021/06/07 14:38:16;;;;;;;4.20;3.15;;;23.60;76.70;;;;;;2313051;54;20971;-69
2021/06/07 14:40:43;;;;;;;4.30;3.20;;;23.60;76.80;;;;;;2311078;53;20972;-75
2021/06/07 14:43:11;;;;;;;4.12;2.83;;;23.70;76.70;;;;;;2309878;54;20969;-69
2021/06/07 14:45:38;;;;;;;4.95;3.45;;;23.70;76.60;;;;;;2314351;54;21012;-70
2021/06/07 14:48:05;;;;;;;4.90;3.70;;;23.80;76.90;;;;;;2309704;54;20989;-73
2021/06/07 14:50:34;;;;;;;6.05;3.87;;;23.80;76.90;;;;;;2540780;54;20977;-68
2021/06/07 14:53:00;;;;;;;4.78;3.62;;;23.90;76.80;;;;;;2311029;54;21077;-73
2021/06/07 14:55:26;;;;;;;5.10;3.80;;;23.90;76.40;;;;;;2310179;53;21047;-69
2021/06/07 14:57:53;;;;;;;5.93;3.90;;;23.90;76.20;;;;;;2309218;54;21976;-70
2021/06/07 15:00:22;;;;;;;4.55;3.40;;;23.90;76.20;;;;;;2356455;54;21612;-69
2021/06/07 15:02:48;;;;;;;4.85;3.45;;;24.00;76.20;;;;;;2312931;54;20985;-70
2021/06/07 15:05:19;;;;;;;5.43;3.80;;;24.00;76.20;;;;;;2310647;54;20936;-74
2021/06/07 15:07:45;;;;;;;5.00;3.30;;;24.00;76.00;;;;;;2315777;54;21032;-69
2021/06/07 15:10:11;;;;;;;4.55;3.08;;;24.00;75.80;;;;;;2302561;54;20968;-70
2021/06/07 15:12:38;;;;;;;5.10;3.72;;;24.10;75.70;;;;;;2315462;54;20941;-69
2021/06/07 15:15:05;;;;;;;5.12;3.47;;;24.10;75.40;;;;;;2313159;54;20979;-69
2021/06/07 15:17:31;;;;;;;6.12;3.65;;;24.10;75.10;;;;;;2309520;54;21036;-68
2021/06/07 15:20:10;;;;;;;5.07;3.60;;;24.10;75.00;;;;;;2317952;54;21479;-69
2021/06/07 15:22:37;;;;;;;4.85;3.10;;;24.10;73.70;;;;;;2309189;53;21046;-69
2021/06/07 15:25:04;;;;;;;5.03;3.20;;;24.10;74.50;;;;;;2306955;54;21752;-69
2021/06/07 15:27:31;;;;;;;4.45;3.20;;;24.10;74.50;;;;;;2307642;54;20968;-69
2021/06/07 15:29:57;;;;;;;4.65;2.97;;;24.00;74.50;;;;;;2541582;54;21458;-72
2021/06/07 15:32:23;;;;;;;4.62;2.95;;;24.00;74.50;;;;;;2530273;53;21061;-69
2021/06/07 15:35:26;;;;;;;4.95;3.20;;;24.00;74.50;;;;;;2312930;54;21783;-73
2021/06/07 15:38:02;;;;;;;4.32;3.05;;;24.00;73.40;;;;;;2312413;54;20984;-70
2021/06/07 15:40:29;;;;;;;5.10;3.42;;;23.90;75.50;;;;;;2302291;54;20970;-69
2021/06/07 15:42:56;;;;;;;5.82;3.55;;;23.90;74.70;;;;;;2311078;54;20953;-70
2021/06/07 15:45:22;;;;;;;5.57;3.35;;;23.90;74.90;;;;;;2313033;54;20969;-69
2021/06/07 15:47:50;;;;;;;5.97;4.25;;;23.90;75.10;;;;;;2310669;54;20993;-69
2021/06/07 15:50:24;;;;;;;6.53;4.07;;;23.90;75.20;;;;;;2460597;54;21072;-72
2021/06/07 15:52:51;;;;;;;5.70;3.67;;;23.90;75.10;;;;;;2514153;54;21404;-71
2021/06/07 15:55:21;;;;;;;5.80;3.83;;;23.90;75.20;;;;;;2312264;53;21116;-76
2021/06/07 15:57:47;;;;;;;5.72;4.18;;;24.00;75.40;;;;;;2538595;54;22068;-70
2021/06/07 16:00:21;;;;;;;6.37;3.90;;;24.00;75.40;;;;;;2311963;54;21859;-70
2021/06/07 16:02:48;;;;;;;4.72;3.33;;;24.00;74.40;;;;;;2323577;54;21036;-69
2021/06/07 16:05:16;;;;;;;4.30;3.05;;;24.00;75.20;;;;;;2310595;54;21048;-68
2021/06/07 16:07:42;;;;;;;4.75;3.28;;;24.00;74.80;;;;;;2307656;54;22183;-69
2021/06/07 16:10:09;;;;;;;4.97;3.58;;;24.00;74.90;;;;;;2540798;54;20973;-74
2021/06/07 16:12:36;;;;;;;5.25;3.42;;;24.00;74.80;;;;;;2311385;54;21035;-74
2021/06/07 16:15:04;;;;;;;5.72;3.60;;;24.00;74.70;;;;;;2308528;54;21060;-70
2021/06/07 16:17:55;;;;;;;5.90;3.25;;;24.00;74.50;;;;;;2538505;54;21759;-69
2021/06/07 16:26:27;;;;;;;4.32;2.90;;;24.00;74.50;;;;;;2312826;54;21104;-73
2021/06/07 16:28:54;;;;;;;6.28;3.60;;;24.00;74.00;;;;;;2310332;54;21053;-70
2021/06/07 16:31:21;;;;;;;6.07;3.40;;;23.90;74.20;;;;;;2538563;54;20953;-75
2021/06/07 16:33:47;;;;;;;5.70;3.42;;;23.90;74.20;;;;;;2310665;54;21790;-69
2021/06/07 16:36:14;;;;;;;5.30;3.03;;;23.90;74.10;;;;;;2307866;54;21881;-70
2021/06/07 16:38:40;;;;;;;5.25;3.30;;;23.80;74.00;;;;;;2307682;54;21017;-73
2021/06/07 16:41:06;;;;;;;7.70;5.43;;;23.80;74.10;;;;;;2539418;53;21117;-69
2021/06/07 16:43:35;;;;;;;6.70;3.92;;;23.70;74.10;;;;;;2310192;54;20981;-69
2021/06/07 16:46:04;;;;;;;6.90;4.47;;;23.70;74.30;;;;;;2304896;54;21045;-69
2021/06/07 16:48:30;;;;;;;7.78;5.37;;;23.70;74.20;;;;;;2311607;53;21072;-69
2021/06/07 16:50:58;;;;;;;6.78;4.60;;;23.60;74.40;;;;;;2307547;54;21052;-71
2021/06/07 16:53:24;;;;;;;8.15;5.15;;;23.60;74.40;;;;;;2294141;54;21000;-68
2021/06/07 16:55:54;;;;;;;6.87;4.78;;;23.60;74.70;;;;;;2320183;53;20981;-70
2021/06/07 16:58:20;;;;;;;8.52;5.72;;;23.60;74.60;;;;;;2307793;54;21056;-73
2021/06/07 17:00:46;;;;;;;8.95;5.53;;;23.60;75.00;;;;;;2308226;54;20946;-68
2021/06/07 17:03:13;;;;;;;8.57;5.15;;;23.60;75.10;;;;;;2299526;54;21015;-69
2021/06/07 17:05:39;;;;;;;8.43;5.00;;;23.60;75.20;;;;;;2308939;54;21005;-70
2021/06/07 17:08:05;;;;;;;7.97;4.90;;;23.60;75.30;;;;;;2506397;54;21589;-71
2021/06/07 17:10:33;;;;;;;7.37;5.05;;;23.60;75.20;;;;;;2309774;54;20975;-72
2021/06/07 17:13:08;;;;;;;7.85;5.20;;;23.60;75.10;;;;;;2309052;54;21028;-69
2021/06/07 17:15:36;;;;;;;6.50;4.53;;;23.60;75.00;;;;;;2308527;54;20965;-72
2021/06/07 17:18:07;;;;;;;7.30;4.93;;;23.60;74.80;;;;;;2313448;54;21043;-69
2021/06/07 17:20:39;;;;;;;6.55;4.68;;;23.60;74.20;;;;;;2308600;54;21966;-72
2021/06/07 17:23:05;;;;;;;7.68;4.93;;;23.60;74.40;;;;;;2311346;53;20949;-75
2021/06/07 17:25:32;;;;;;;7.35;4.80;;;23.60;74.40;;;;;;2309805;54;21886;-68
2021/06/07 17:27:59;;;;;;;9.13;5.10;;;23.50;74.30;;;;;;2510163;54;20945;-69
2021/06/07 17:30:25;;;;;;;8.48;5.72;;;23.50;74.30;;;;;;2309231;58;21107;-74
2021/06/07 17:32:51;;;;;;;8.85;5.50;;;23.50;74.20;;;;;;2309828;58;21822;-69
2021/06/07 17:35:18;;;;;;;7.85;5.22;;;23.50;74.30;;;;;;2303424;54;21461;-68
2021/06/07 17:37:45;;;;;;;9.25;5.43;;;23.40;74.20;;;;;;2341050;54;20929;-68
2021/06/07 17:40:13;;;;;;;7.72;5.20;;;23.40;74.20;;;;;;2311034;54;21113;-71
2021/06/07 17:42:39;;;;;;;7.43;5.32;;;23.40;74.20;;;;;;2297348;54;21447;-69
2021/06/07 17:45:06;;;;;;;7.80;5.35;;;23.30;74.20;;;;;;2307450;53;20955;-73
2021/06/07 17:47:32;;;;;;;9.25;5.57;;;23.30;74.20;;;;;;2307784;54;21057;-69
2021/06/07 17:49:59;;;;;;;10.27;5.75;;;23.30;74.20;;;;;;2529147;54;20960;-70
2021/06/07 17:52:28;;;;;;;8.75;6.10;;;23.30;74.20;;;;;;2309322;54;21054;-71
2021/06/07 17:54:57;;;;;;;9.27;5.93;;;23.20;74.20;;;;;;2300602;53;21053;-69
2021/06/07 17:57:24;;;;;;;10.15;6.20;;;23.20;74.40;;;;;;2307899;54;21006;-69
2021/06/07 17:59:50;;;;;;;11.02;6.85;;;23.20;74.40;;;;;;2308884;54;20946;-71
2021/06/07 18:02:16;;;;;;;9.63;6.78;;;23.20;74.40;;;;;;2304504;54;21489;-73
2021/06/07 18:04:43;;;;;;;10.63;6.78;;;23.20;74.40;;;;;;2303313;54;21448;-68
2021/06/07 18:07:09;;;;;;;9.40;6.90;;;23.10;74.40;;;;;;2308612;54;21041;-69
2021/06/07 18:09:35;;;;;;;11.30;6.50;;;23.10;74.40;;;;;;2308552;54;20971;-73
2021/06/07 18:12:02;;;;;;;11.35;6.68;;;23.10;74.40;;;;;;2313177;54;21067;-73
2021/06/07 18:14:28;;;;;;;11.20;6.97;;;23.00;74.30;;;;;;2537499;54;20930;-70
2021/06/07 18:16:56;;;;;;;10.98;6.97;;;23.00;74.30;;;;;;2294378;54;21049;-73
2021/06/07 18:19:23;;;;;;;11.52;7.25;;;23.00;74.40;;;;;;2512338;54;21001;-69
2021/06/07 18:21:50;;;;;;;10.88;7.28;;;23.00;74.50;;;;;;2307084;54;21849;-68
2021/06/07 18:24:16;;;;;;;11.10;7.45;;;23.00;74.50;;;;;;2291540;54;20972;-69
2021/06/07 18:26:43;;;;;;;11.05;7.85;;;22.90;74.40;;;;;;2306711;54;21869;-69
2021/06/07 18:29:09;;;;;;;11.30;7.12;;;22.90;74.50;;;;;;2307021;54;21014;-68
2021/06/07 18:31:40;;;;;;;11.07;7.70;;;22.90;74.50;;;;;;2305048;54;20960;-73
2021/06/07 18:34:07;;;;;;;12.37;7.70;;;22.90;74.20;;;;;;2299323;54;20965;-70
2021/06/07 18:36:36;;;;;;;11.18;7.28;;;22.80;74.50;;;;;;2308213;54;21040;-70
2021/06/07 18:39:04;;;;;;;11.65;7.00;;;22.80;74.40;;;;;;2282844;54;21013;-71
2021/06/07 18:41:30;;;;;;;11.85;7.45;;;22.70;74.50;;;;;;2309742;54;20977;-72
2021/06/07 18:43:56;;;;;;;10.32;6.82;;;22.70;74.70;;;;;;2311277;54;21970;-69
2021/06/07 18:46:23;;;;;;;10.65;6.60;;;22.70;74.70;;;;;;2410463;54;21007;-69
2021/06/07 18:48:52;;;;;;;10.15;6.43;;;22.60;74.80;;;;;;2538349;54;21040;-68
2021/06/07 18:51:18;;;;;;;9.63;6.75;;;22.60;74.60;;;;;;2309596;53;20961;-72
2021/06/07 18:53:48;;;;;;;10.65;7.12;;;22.60;74.90;;;;;;2311797;54;20936;-74
2021/06/07 18:56:15;;;;;;;11.48;7.43;;;22.60;74.80;;;;;;2309083;54;21097;-69
2021/06/07 18:58:42;;;;;;;10.38;6.93;;;22.60;75.10;;;;;;2311889;53;21017;-69
2021/06/07 19:01:18;;;;;;;12.57;8.15;;;22.60;75.10;;;;;;2308724;54;21052;-69
2021/06/07 19:03:45;;;;;;;12.43;7.07;;;22.50;74.30;;;;;;2309918;54;21931;-74
2021/06/07 19:06:12;;;;;;;10.68;7.05;;;22.50;75.00;;;;;;2314226;54;21045;-73
2021/06/07 19:08:39;;;;;;;11.07;6.82;;;22.50;75.10;;;;;;2307861;54;21049;-70
2021/06/07 19:11:05;;;;;;;12.68;7.62;;;22.50;75.20;;;;;;2307618;54;21784;-69
2021/06/07 19:13:31;;;;;;;11.48;7.68;;;22.50;75.20;;;;;;2370549;54;21041;-69
2021/06/07 19:15:58;;;;;;;11.12;6.60;;;22.40;75.20;;;;;;2304782;54;21056;-70
2021/06/07 19:18:27;;;;;;;11.23;6.75;;;22.40;75.40;;;;;;2342096;54;21061;-71
2021/06/07 19:20:54;;;;;;;9.85;6.68;;;22.40;75.30;;;;;;2309961;54;21081;-73
2021/06/07 19:23:21;;;;;;;9.43;6.37;;;22.40;75.50;;;;;;2309653;54;21001;-69
2021/06/07 19:25:47;;;;;;;14.60;6.53;;;22.40;75.50;;;;;;2310874;54;20922;-75
2021/06/07 19:28:15;;;;;;;9.10;6.25;;;22.40;75.60;;;;;;2540730;54;21009;-68
2021/06/07 19:30:44;;;;;;;10.82;6.87;;;22.40;75.50;;;;;;2309466;54;20985;-73
2021/06/07 19:33:10;;;;;;;11.18;6.87;;;22.40;75.40;;;;;;2311728;54;21033;-68
2021/06/07 19:35:37;;;;;;;10.80;7.25;;;22.40;75.50;;;;;;2377303;54;20965;-69
2021/06/07 19:38:03;;;;;;;13.13;7.93;;;22.40;75.50;;;;;;2308664;54;21032;-69
2021/06/07 19:40:29;;;;;;;14.23;8.43;;;22.30;75.40;;;;;;2312971;54;20969;-69
2021/06/07 19:42:56;;;;;;;13.80;9.25;;;22.30;75.30;;;;;;2333895;53;21508;-69
2021/06/07 19:45:22;;;;;;;13.75;8.20;;;22.30;75.40;;;;;;2309636;54;20972;-71
2021/06/07 19:47:48;;;;;;;12.00;8.07;;;22.30;75.40;;;;;;2311621;54;20993;-72
2021/06/07 19:50:15;;;;;;;13.90;8.85;;;22.30;75.40;;;;;;2313084;53;20980;-69
2021/06/07 19:52:41;;;;;;;11.88;7.65;;;22.30;75.40;;;;;;2540902;54;21081;-70
2021/06/07 19:55:16;;;;;;;11.63;7.47;;;22.30;75.50;;;;;;2313660;54;20982;-68
2021/06/07 19:57:44;;;;;;;11.98;7.80;;;22.30;75.50;;;;;;2311728;53;20968;-74
2021/06/07 20:00:11;;;;;;;13.05;8.15;;;22.20;75.40;;;;;;2308961;54;20981;-74
2021/06/07 20:02:37;;;;;;;14.00;8.85;;;22.20;75.50;;;;;;2309576;54;20950;-69
2021/06/07 20:05:05;;;;;;;13.70;9.52;;;22.20;75.50;;;;;;2312073;54;20960;-70
2021/06/07 20:07:32;;;;;;;15.25;8.88;;;22.20;75.40;;;;;;2310261;54;20961;-68
2021/06/07 20:09:58;;;;;;;13.52;8.48;;;22.20;75.60;;;;;;2310145;54;20957;-69
2021/06/07 20:12:25;;;;;;;13.07;8.60;;;22.20;75.70;;;;;;2315097;53;20957;-72
2021/06/07 20:14:51;;;;;;;16.15;9.13;;;22.20;75.70;;;;;;2311080;54;21026;-68
2021/06/07 20:17:17;;;;;;;12.95;8.25;;;22.20;75.70;;;;;;2310773;54;20941;-69
2021/06/07 20:19:44;;;;;;;12.02;8.40;;;22.20;75.80;;;;;;2311758;54;20964;-69
2021/06/07 20:22:11;;;;;;;14.77;9.40;;;22.10;75.70;;;;;;2308783;54;21045;-69